Time;durP1;ratioP1;P1;durP2;ratioP2;P2;SDS_P1;SDS_P2;PMS_P1;PMS_P2;Temp;Humidity;BMP_temperature;BMP_pressure;BME280_temperature;BME280_humidity;BME280_pressure;Samples;Min_cycle;Max_cycle;Signal;HPM_P1;HPM_P2
2022/05/07 00:02:17;;;;;;;;;;;21.60;52.80;;;;;;5072677;28;20278;-52
2022/05/07 00:04:44;;;;;;;;;;;21.60;52.80;;;;;;5071916;28;20027;-55
2022/05/07 00:07:11;;;;;;;;;;;21.60;52.80;;;;;;5092196;28;20283;-52
2022/05/07 00:09:38;;;;;;;;;;;21.60;52.80;;;;;;5080689;28;19932;-55
2022/05/07 00:12:06;;;;;;;;;;;21.60;52.80;;;;;;5072903;28;19994;-54
2022/05/07 00:14:34;;;;;;;;;;;21.60;52.80;;;;;;5072288;28;19925;-49
2022/05/07 00:19:47;;;;;;;;;;;21.60;52.80;;;;;;5072456;28;20047;-47
2022/05/07 00:22:15;;;;;;;;;;;21.60;52.80;;;;;;5072411;28;19931;-48
2022/05/07 00:24:42;;;;;;;;;;;21.60;52.80;;;;;;5072234;28;20285;-48
2022/05/07 00:27:09;;;;;;;;;;;21.60;52.80;;;;;;5072327;28;19970;-49
2022/05/07 00:29:36;;;;;;;;;;;21.60;52.80;;;;;;5091563;28;19924;-48
2022/05/07 00:32:04;;;;;;;;;;;21.60;52.80;;;;;;5095588;28;19924;-49
2022/05/07 00:34:31;;;;;;;;;;;21.60;52.80;;;;;;5095814;28;19931;-48
2022/05/07 00:36:58;;;;;;;;;;;21.60;52.80;;;;;;5095835;28;19924;-49
2022/05/07 00:39:25;;;;;;;;;;;21.60;52.80;;;;;;5111559;28;19972;-48
2022/05/07 00:41:53;;;;;;;;;;;21.50;52.70;;;;;;5116468;28;19931;-49
2022/05/07 00:44:21;;;;;;;;;;;21.60;52.80;;;;;;5115302;28;20432;-48
2022/05/07 00:46:48;;;;;;;;;;;21.60;52.80;;;;;;5095580;28;19989;-48
2022/05/07 00:49:15;;;;;;;;;;;21.50;52.70;;;;;;5061581;28;20291;-48
2022/05/07 00:51:43;;;;;;;;;;;21.50;52.70;;;;;;5077690;28;19924;-48
2022/05/07 00:54:10;;;;;;;;;;;21.60;52.80;;;;;;5095979;28;19949;-47
2022/05/07 00:56:37;;;;;;;;;;;21.50;52.70;;;;;;5095021;28;19993;-47
2022/05/07 00:59:05;;;;;;;;;;;21.60;52.80;;;;;;5095846;28;20295;-48
2022/05/07 01:01:32;;;;;;;;;;;21.60;52.80;;;;;;5093647;28;19924;-48
2022/05/07 01:04:00;;;;;;;;;;;21.60;52.80;;;;;;5095821;28;19969;-47
2022/05/07 01:06:28;;;;;;;;;;;21.60;52.80;;;;;;5077223;28;19935;-47
2022/05/07 01:08:55;;;;;;;;;;;21.60;52.80;;;;;;5089550;28;20299;-46
2022/05/07 01:11:22;;;;;;;;;;;21.60;52.80;;;;;;5075585;28;20366;-48
2022/05/07 01:13:49;;;;;;;;;;;21.60;52.80;;;;;;5075061;28;20367;-47
2022/05/07 01:16:16;;;;;;;;;;;21.60;52.80;;;;;;5075070;28;19968;-47
2022/05/07 01:18:43;;;;;;;;;;;21.60;52.80;;;;;;5074676;28;19928;-46
2022/05/07 01:21:12;;;;;;;;;;;21.60;52.80;;;;;;5075114;28;19925;-47
2022/05/07 01:23:40;;;;;;;;;;;21.60;52.80;;;;;;5076220;28;19936;-47
2022/05/07 01:26:08;;;;;;;;;;;21.60;52.80;;;;;;5094841;28;19935;-48
2022/05/07 01:28:35;;;;;;;;;;;21.50;53.30;;;;;;5094637;28;19924;-46
2022/05/07 01:31:02;;;;;;;;;;;21.60;52.80;;;;;;5077120;28;19924;-46
2022/05/07 01:33:33;;;;;;;;;;;21.50;52.70;;;;;;5094680;28;19928;-47
2022/05/07 01:36:01;;;;;;;;;;;21.60;52.80;;;;;;5094855;28;19924;-46
2022/05/07 01:38:29;;;;;;;;;;;21.60;52.80;;;;;;5102904;28;19969;-46
2022/05/07 01:40:57;;;;;;;;;;;21.60;52.80;;;;;;5115026;28;19924;-47
2022/05/07 01:43:26;;;;;;;;;;;21.60;52.80;;;;;;5114065;28;19924;-47
2022/05/07 01:45:55;;;;;;;;;;;21.60;52.80;;;;;;5101316;28;19928;-47
2022/05/07 01:48:22;;;;;;;;;;;21.60;52.80;;;;;;5094907;28;20395;-46
2022/05/07 01:50:49;;;;;;;;;;;21.60;52.80;;;;;;5094280;28;20422;-47
2022/05/07 01:53:16;;;;;;;;;;;21.60;52.80;;;;;;5095107;28;20302;-46
2022/05/07 01:55:46;;;;;;;;;;;21.60;52.80;;;;;;5094443;28;19924;-46
2022/05/07 01:58:13;;;;;;;;;;;21.50;52.80;;;;;;5092279;28;19924;-47
2022/05/07 02:00:40;;;;;;;;;;;21.50;52.70;;;;;;5094564;28;20290;-47
2022/05/07 02:03:08;;;;;;;;;;;21.60;52.80;;;;;;5094180;28;19928;-48
2022/05/07 02:05:35;;;;;;;;;;;21.50;52.70;;;;;;5094446;28;20283;-47
2022/05/07 02:08:02;;;;;;;;;;;21.60;52.80;;;;;;5094358;28;19924;-47
2022/05/07 02:10:29;;;;;;;;;;;21.60;52.80;;;;;;5074971;28;19990;-49
2022/05/07 02:12:57;;;;;;;;;;;21.60;52.80;;;;;;5073946;28;19931;-46
2022/05/07 02:15:24;;;;;;;;;;;21.60;52.80;;;;;;5073707;28;20297;-47
2022/05/07 02:17:51;;;;;;;;;;;21.60;52.80;;;;;;5073603;28;19974;-46
2022/05/07 02:20:19;;;;;;;;;;;21.50;52.70;;;;;;5078966;28;19931;-47
2022/05/07 02:22:46;;;;;;;;;;;21.60;52.80;;;;;;5093926;28;19939;-47
2022/05/07 02:25:12;;;;;;;;;;;21.50;52.70;;;;;;5093487;28;19924;-47
2022/05/07 02:27:41;;;;;;;;;;;21.50;52.70;;;;;;5093586;28;19928;-46
2022/05/07 02:30:08;;;;;;;;;;;21.50;52.70;;;;;;5093801;28;19932;-46
2022/05/07 02:32:35;;;;;;;;;;;21.60;52.80;;;;;;5093873;28;19924;-46
2022/05/07 02:35:03;;;;;;;;;;;21.60;52.80;;;;;;5093467;28;19932;-47
2022/05/07 02:37:30;;;;;;;;;;;21.60;52.80;;;;;;5093631;28;19924;-47
2022/05/07 02:39:57;;;;;;;;;;;21.50;52.70;;;;;;5113808;28;20399;-46
2022/05/07 02:42:33;;;;;;;;;;;21.50;52.70;;;;;;5114223;28;19924;-49
2022/05/07 02:45:01;;;;;;;;;;;21.60;52.80;;;;;;5107283;28;20010;-47
2022/05/07 02:47:28;;;;;;;;;;;21.60;52.80;;;;;;5093341;28;20268;-46
2022/05/07 02:49:55;;;;;;;;;;;21.60;52.80;;;;;;5093412;28;19924;-46
2022/05/07 02:52:23;;;;;;;;;;;21.60;52.80;;;;;;5093497;28;19971;-47
2022/05/07 02:54:50;;;;;;;;;;;21.50;52.70;;;;;;5091155;28;19924;-47
2022/05/07 02:57:17;;;;;;;;;;;21.60;52.80;;;;;;5093347;28;20395;-46
2022/05/07 02:59:44;;;;;;;;;;;21.50;52.70;;;;;;5093773;28;20288;-53
2022/05/07 03:02:11;;;;;;;;;;;21.60;52.80;;;;;;5093263;28;19968;-54
2022/05/07 03:04:38;;;;;;;;;;;21.60;52.80;;;;;;5093410;28;19924;-53
2022/05/07 03:07:05;;;;;;;;;;;21.60;52.80;;;;;;5075677;28;19930;-54
2022/05/07 03:09:32;;;;;;;;;;;21.60;52.80;;;;;;5082099;28;20280;-47
2022/05/07 03:11:59;;;;;;;;;;;21.60;52.80;;;;;;5073273;28;19931;-48
2022/05/07 03:14:26;;;;;;;;;;;21.60;52.80;;;;;;5072199;28;19985;-47
2022/05/07 03:16:53;;;;;;;;;;;21.50;52.70;;;;;;5080619;28;19931;-48
2022/05/07 03:19:20;;;;;;;;;;;21.50;52.70;;;;;;5093195;28;19931;-48
2022/05/07 03:21:47;;;;;;;;;;;21.50;52.70;;;;;;5092971;28;19928;-49
2022/05/07 03:24:14;;;;;;;;;;;21.60;52.80;;;;;;5093213;28;20306;-47
2022/05/07 03:26:41;;;;;;;;;;;21.60;52.80;;;;;;5093325;28;20321;-47
2022/05/07 03:29:08;;;;;;;;;;;21.60;52.80;;;;;;5093251;28;19924;-47
2022/05/07 03:31:38;;;;;;;;;;;21.60;52.80;;;;;;5093518;28;19947;-47
2022/05/07 03:34:06;;;;;;;;;;;21.60;53.40;;;;;;5093841;28;19973;-47
2022/05/07 03:36:33;;;;;;;;;;;21.50;52.70;;;;;;5092939;28;19924;-47
2022/05/07 03:39:00;;;;;;;;;;;21.50;52.70;;;;;;5105483;28;20295;-48
2022/05/07 03:41:27;;;;;;;;;;;21.50;52.70;;;;;;5113484;28;19988;-46
2022/05/07 03:43:54;;;;;;;;;;;21.60;52.80;;;;;;5100933;28;19924;-47
2022/05/07 03:46:21;;;;;;;;;;;21.50;52.70;;;;;;5092809;28;19928;-47
2022/05/07 03:48:49;;;;;;;;;;;21.60;52.80;;;;;;5093118;28;19925;-48
2022/05/07 03:51:15;;;;;;;;;;;21.60;52.80;;;;;;5085738;28;19931;-49
2022/05/07 03:53:42;;;;;;;;;;;21.50;52.70;;;;;;5092910;28;19924;-47
2022/05/07 03:56:09;;;;;;;;;;;21.60;52.80;;;;;;5092727;28;19928;-48
2022/05/07 03:58:37;;;;;;;;;;;21.60;52.80;;;;;;5092772;28;19931;-48
2022/05/07 04:01:09;;;;;;;;;;;21.50;52.70;;;;;;5093214;28;19924;-49
2022/05/07 04:03:37;;;;;;;;;;;21.50;52.70;;;;;;5092706;28;20383;-48
2022/05/07 04:06:04;;;;;;;;;;;21.60;52.80;;;;;;5094246;28;20295;-47
2022/05/07 04:08:31;;;;;;;;;;;21.60;52.80;;;;;;5099085;28;19928;-47
2022/05/07 04:10:58;;;;;;;;;;;21.60;52.80;;;;;;5117381;28;19928;-46
2022/05/07 04:13:25;;;;;;;;;;;21.50;52.70;;;;;;5106427;28;19928;-48
2022/05/07 04:15:52;;;;;;;;;;;21.50;52.70;;;;;;5096382;28;20376;-47
2022/05/07 04:18:19;;;;;;;;;;;21.50;52.70;;;;;;5096367;28;19967;-46
2022/05/07 04:20:48;;;;;;;;;;;21.60;52.80;;;;;;5096337;28;19928;-50
2022/05/07 04:23:14;;;;;;;;;;;21.60;52.80;;;;;;5095989;28;20383;-49
2022/05/07 04:25:42;;;;;;;;;;;21.50;52.70;;;;;;5096429;28;19966;-53
2022/05/07 04:28:09;;;;;;;;;;;21.60;52.80;;;;;;5096470;28;20006;-49
2022/05/07 04:30:36;;;;;;;;;;;21.60;52.80;;;;;;5096520;28;19931;-48
2022/05/07 04:33:03;;;;;;;;;;;21.60;52.80;;;;;;5096238;28;19924;-46
2022/05/07 04:35:30;;;;;;;;;;;21.60;52.80;;;;;;5096195;28;19973;-49
2022/05/07 04:37:57;;;;;;;;;;;21.60;52.80;;;;;;5099240;28;20387;-47
2022/05/07 04:40:24;;;;;;;;;;;21.60;52.70;;;;;;5101925;28;19924;-48
2022/05/07 04:42:51;;;;;;;;;;;21.60;52.70;;;;;;5095924;28;19930;-48
2022/05/07 04:45:18;;;;;;;;;;;21.60;52.70;;;;;;5095842;28;19931;-47
2022/05/07 04:47:45;;;;;;;;;;;21.60;52.70;;;;;;5094211;28;19931;-46
2022/05/07 04:50:13;;;;;;;;;;;21.60;52.70;;;;;;5095610;28;19927;-47
2022/05/07 04:52:40;;;;;;;;;;;21.60;52.70;;;;;;5095784;28;19924;-46
2022/05/07 04:55:07;;;;;;;;;;;21.60;52.70;;;;;;5096193;28;19924;-49
2022/05/07 04:57:36;;;;;;;;;;;21.60;52.70;;;;;;5095604;28;19928;-48
2022/05/07 05:00:06;;;;;;;;;;;21.60;52.70;;;;;;5095889;28;20030;-46
2022/05/07 05:02:33;;;;;;;;;;;21.60;52.60;;;;;;5095813;28;19931;-48
2022/05/07 05:05:00;;;;;;;;;;;21.60;52.60;;;;;;5095491;28;20018;-47
2022/05/07 05:07:27;;;;;;;;;;;21.60;52.60;;;;;;5095448;28;19930;-47
2022/05/07 05:09:54;;;;;;;;;;;21.60;52.60;;;;;;5093567;28;19924;-46
2022/05/07 05:12:22;;;;;;;;;;;21.60;52.70;;;;;;5095177;28;19924;-48
2022/05/07 05:15:01;;;;;;;;;;;21.60;52.60;;;;;;5095231;28;19924;-47
2022/05/07 05:17:28;;;;;;;;;;;21.60;52.60;;;;;;5095307;28;19928;-51
2022/05/07 05:19:55;;;;;;;;;;;21.60;52.60;;;;;;5095102;28;19924;-47
2022/05/07 05:22:23;;;;;;;;;;;21.60;52.60;;;;;;5095527;28;19924;-48
2022/05/07 05:24:50;;;;;;;;;;;21.60;52.60;;;;;;5095167;28;19985;-46
2022/05/07 05:27:17;;;;;;;;;;;21.60;52.60;;;;;;5094889;28;19938;-46
2022/05/07 05:29:44;;;;;;;;;;;21.60;53.20;;;;;;5095488;28;20322;-47
2022/05/07 05:32:17;;;;;;;;;;;21.60;52.60;;;;;;5095220;28;19985;-47
2022/05/07 05:34:45;;;;;;;;;;;21.60;52.60;;;;;;5091746;28;20350;-46
2022/05/07 05:37:14;;;;;;;;;;;21.60;52.60;;;;;;5074401;28;19924;-46
2022/05/07 05:39:41;;;;;;;;;;;21.60;52.60;;;;;;5110616;28;19923;-47
2022/05/07 05:42:08;;;;;;;;;;;21.60;52.60;;;;;;5115669;28;19927;-47
2022/05/07 05:44:38;;;;;;;;;;;21.60;52.60;;;;;;5093262;28;19924;-47
2022/05/07 05:47:06;;;;;;;;;;;21.60;52.60;;;;;;5095372;28;19928;-47
2022/05/07 05:49:33;;;;;;;;;;;21.60;52.60;;;;;;5094948;28;19938;-50
2022/05/07 05:52:01;;;;;;;;;;;21.60;52.60;;;;;;5094793;28;19924;-46
2022/05/07 05:54:29;;;;;;;;;;;21.60;52.60;;;;;;5094343;28;19931;-46
2022/05/07 05:56:57;;;;;;;;;;;21.60;52.60;;;;;;5094297;28;19931;-46
2022/05/07 05:59:24;;;;;;;;;;;21.60;52.60;;;;;;5094594;28;20322;-46
2022/05/07 06:01:51;;;;;;;;;;;21.60;52.60;;;;;;5094444;28;19930;-47
2022/05/07 06:04:19;;;;;;;;;;;21.60;52.60;;;;;;5094527;28;19967;-47
2022/05/07 06:06:46;;;;;;;;;;;21.60;52.60;;;;;;5094284;28;19924;-47
2022/05/07 06:09:13;;;;;;;;;;;21.60;52.60;;;;;;5085577;28;19924;-47
2022/05/07 06:11:40;;;;;;;;;;;21.60;52.60;;;;;;5073978;28;20422;-47
2022/05/07 06:14:07;;;;;;;;;;;21.60;52.60;;;;;;5074283;28;19924;-48
2022/05/07 06:16:34;;;;;;;;;;;21.60;52.60;;;;;;5092245;28;19989;-47
2022/05/07 06:19:01;;;;;;;;;;;21.60;52.60;;;;;;5094351;28;20310;-54
2022/05/07 06:21:29;;;;;;;;;;;21.60;52.50;;;;;;5093877;28;20363;-55
2022/05/07 06:23:56;;;;;;;;;;;21.60;52.50;;;;;;5093959;28;19925;-55
2022/05/07 06:29:09;;;;;;;;;;;21.60;52.50;;;;;;5093292;28;19954;-50
2022/05/07 06:31:36;;;;;;;;;;;21.70;52.60;;;;;;5090383;28;19931;-55
2022/05/07 06:34:09;;;;;;;;;;;21.70;52.60;;;;;;5073589;28;19928;-52
2022/05/07 06:36:36;;;;;;;;;;;21.60;52.50;;;;;;5073302;28;19974;-54
2022/05/07 06:39:03;;;;;;;;;;;21.60;52.50;;;;;;5091675;28;19924;-55
2022/05/07 06:41:36;;;;;;;;;;;21.70;52.60;;;;;;5093619;28;19924;-52
2022/05/07 06:44:03;;;;;;;;;;;21.70;52.50;;;;;;5093678;28;19924;-54
2022/05/07 06:46:30;;;;;;;;;;;21.70;52.60;;;;;;5093472;28;19924;-51
2022/05/07 06:48:57;;;;;;;;;;;21.70;52.60;;;;;;5093774;28;20010;-49
2022/05/07 06:51:24;;;;;;;;;;;21.70;52.60;;;;;;5093639;28;19925;-54
2022/05/07 06:53:51;;;;;;;;;;;21.70;52.50;;;;;;5093641;28;19924;-53
2022/05/07 06:56:18;;;;;;;;;;;21.70;52.50;;;;;;5093435;28;19924;-47
2022/05/07 06:58:45;;;;;;;;;;;21.70;52.50;;;;;;5075679;28;19924;-47
2022/05/07 07:01:13;;;;;;;;;;;21.70;52.40;;;;;;5093374;28;19925;-47
2022/05/07 07:03:41;;;;;;;;;;;21.70;52.50;;;;;;5093416;28;19973;-48
2022/05/07 07:06:08;;;;;;;;;;;21.70;52.40;;;;;;5093506;28;19924;-48
2022/05/07 07:08:35;;;;;;;;;;;21.70;52.40;;;;;;5090120;28;19932;-48
2022/05/07 07:11:02;;;;;;;;;;;21.70;52.40;;;;;;5076649;28;19924;-53
2022/05/07 07:13:29;;;;;;;;;;;21.70;52.40;;;;;;5093274;28;19928;-54
2022/05/07 07:15:56;;;;;;;;;;;21.70;52.40;;;;;;5092955;28;19924;-49
2022/05/07 07:18:23;;;;;;;;;;;21.70;52.40;;;;;;5093253;28;19924;-53
2022/05/07 07:20:50;;;;;;;;;;;21.70;52.40;;;;;;5092664;28;19931;-48
2022/05/07 07:23:17;;;;;;;;;;;21.70;52.40;;;;;;5093166;28;19928;-48
2022/05/07 07:25:44;;;;;;;;;;;21.70;52.40;;;;;;5092640;28;20015;-49
2022/05/07 07:28:12;;;;;;;;;;;21.70;52.40;;;;;;5086871;28;19970;-47
2022/05/07 07:30:40;;;;;;;;;;;21.70;52.40;;;;;;5072729;28;19940;-54
2022/05/07 07:33:09;;;;;;;;;;;21.70;52.40;;;;;;5072690;28;19946;-50
2022/05/07 07:35:36;;;;;;;;;;;21.70;52.40;;;;;;5079802;28;19924;-47
2022/05/07 07:38:03;;;;;;;;;;;21.70;52.40;;;;;;5097062;28;19931;-47
2022/05/07 07:40:31;;;;;;;;;;;21.70;52.40;;;;;;5115380;28;19924;-48
2022/05/07 07:42:58;;;;;;;;;;;21.70;52.40;;;;;;5117155;28;20572;-49
2022/05/07 07:48:10;;;;;;;;;;;21.70;52.40;;;;;;5096527;28;20019;-47
2022/05/07 07:50:38;;;;;;;;;;;21.70;52.40;;;;;;5096745;28;19924;-48
2022/05/07 07:53:06;;;;;;;;;;;21.70;52.40;;;;;;5096959;28;19924;-52
2022/05/07 07:55:34;;;;;;;;;;;21.80;52.40;;;;;;5096159;28;20458;-49
2022/05/07 07:58:02;;;;;;;;;;;21.80;52.40;;;;;;5096389;28;19924;-57
2022/05/07 08:00:30;;;;;;;;;;;21.80;52.40;;;;;;5096375;28;19932;-48
2022/05/07 08:02:59;;;;;;;;;;;21.80;52.40;;;;;;5096345;28;19924;-48
2022/05/07 08:05:27;;;;;;;;;;;21.80;52.30;;;;;;5096337;28;19964;-49
2022/05/07 08:13:26;;;;;;;;;;;21.80;52.20;;;;;;5076178;28;19925;-48
2022/05/07 08:15:53;;;;;;;;;;;21.80;52.20;;;;;;5079298;28;19973;-50
2022/05/07 08:18:20;;;;;;;;;;;21.80;52.20;;;;;;5096401;28;20011;-52
2022/05/07 08:20:48;;;;;;;;;;;21.80;52.20;;;;;;5096252;28;20283;-52
2022/05/07 08:23:14;;;;;;;;;;;21.80;52.20;;;;;;5096351;28;19974;-53
2022/05/07 08:25:41;;;;;;;;;;;21.80;52.10;;;;;;5079393;28;20418;-48
2022/05/07 08:28:08;;;;;;;;;;;21.90;52.10;;;;;;5075498;28;20372;-51
2022/05/07 08:30:41;;;;;;;;;;;21.90;52.10;;;;;;5075744;28;20375;-48
2022/05/07 08:33:08;;;;;;;;;;;21.90;52.10;;;;;;5092840;28;19930;-51
2022/05/07 08:35:36;;;;;;;;;;;21.90;52.10;;;;;;5095339;28;19939;-48
2022/05/07 08:38:03;;;;;;;;;;;21.90;52.00;;;;;;5097925;28;20303;-48
2022/05/07 08:40:30;;;;;;;;;;;22.00;52.10;;;;;;5082765;28;19951;-49
2022/05/07 08:42:57;;;;;;;;;;;21.90;52.00;;;;;;5095831;28;19953;-50
2022/05/07 08:45:24;;;;;;;;;;;21.90;52.00;;;;;;5095644;28;19924;-50
2022/05/07 08:47:53;;;;;;;;;;;22.00;52.00;;;;;;5089738;28;20294;-52
2022/05/07 08:50:21;;;;;;;;;;;22.00;52.00;;;;;;5093781;28;19924;-53
2022/05/07 08:52:49;;;;;;;;;;;22.00;52.00;;;;;;5094413;28;19931;-49
2022/05/07 08:55:17;;;;;;;;;;;22.00;52.00;;;;;;5084642;28;19939;-52
2022/05/07 08:57:53;;;;;;;;;;;22.00;52.00;;;;;;5094352;28;19925;-50
2022/05/07 09:00:21;;;;;;;;;;;22.00;52.10;;;;;;5094218;28;19931;-46
2022/05/07 09:02:55;;;;;;;;;;;22.00;52.00;;;;;;5094553;28;19928;-50
2022/05/07 09:05:30;;;;;;;;;;;22.00;52.00;;;;;;5094843;28;19930;-52
2022/05/07 09:07:58;;;;;;;;;;;22.00;52.00;;;;;;5094439;28;19924;-48
2022/05/07 09:10:26;;;;;;;;;;;22.00;52.00;;;;;;5075746;28;20296;-48
2022/05/07 09:12:54;;;;;;;;;;;22.10;52.00;;;;;;5074224;28;19932;-49
2022/05/07 09:15:20;;;;;;;;;;;22.10;52.00;;;;;;5078757;28;19928;-49
2022/05/07 09:17:47;;;;;;;;;;;22.10;52.00;;;;;;5074918;28;19925;-49
2022/05/07 09:20:21;;;;;;;;;;;22.10;52.00;;;;;;5087704;28;19925;-50
2022/05/07 09:22:49;;;;;;;;;;;22.10;51.90;;;;;;5073883;28;19932;-52
2022/05/07 09:25:23;;;;;;;;;;;22.10;51.80;;;;;;5052748;28;20293;-47
2022/05/07 09:27:57;;;;;;;;;;;22.20;51.90;;;;;;5057321;28;19928;-47
2022/05/07 09:30:25;;;;;;;;;;;22.20;51.90;;;;;;5073035;28;19930;-54
2022/05/07 09:32:53;;;;;;;;;;;22.20;51.90;;;;;;5072305;28;19947;-56
2022/05/07 09:38:12;;;;;;;;;;;22.20;51.90;;;;;;5070351;28;19925;-54
2022/05/07 09:40:40;;;;;;;;;;;22.20;51.90;;;;;;5073106;28;19931;-49
2022/05/07 09:43:08;;;;;;;;;;;22.20;51.90;;;;;;5074055;28;19925;-55
2022/05/07 09:45:37;;;;;;;;;;;22.20;51.90;;;;;;5073711;28;19928;-49
2022/05/07 09:48:05;;;;;;;;;;;22.30;51.90;;;;;;5074143;28;20015;-49
2022/05/07 09:58:39;;;;;;;;;;;22.40;51.90;;;;;;5053967;28;19924;-55
2022/05/07 10:01:21;;;;;;;;;;;22.40;51.80;;;;;;5068087;28;19931;-53
2022/05/07 10:04:07;;;;;;;;;;;22.40;51.80;;;;;;5072667;28;19931;-48
2022/05/07 10:06:45;;;;;;;;;;;22.40;51.80;;;;;;5073577;28;19928;-53
2022/05/07 10:09:24;;;;;;;;;;;22.50;51.90;;;;;;5065576;28;19925;-53
2022/05/07 10:11:55;;;;;;;;;;;22.50;51.80;;;;;;5053847;28;19931;-55
2022/05/07 10:14:26;;;;;;;;;;;22.50;51.80;;;;;;5069520;28;19931;-52
2022/05/07 10:16:58;;;;;;;;;;;22.50;51.70;;;;;;5068195;28;19925;-49
2022/05/07 10:19:35;;;;;;;;;;;22.60;51.70;;;;;;5053135;28;19925;-49
2022/05/07 10:22:02;;;;;;;;;;;22.60;51.70;;;;;;5053270;28;19925;-48
2022/05/07 10:24:37;;;;;;;;;;;22.70;51.60;;;;;;5111830;27;19922;-47
2022/05/07 10:27:04;;;;;;;;;;;22.70;51.50;;;;;;5110383;28;19928;-47
2022/05/07 10:29:38;;;;;;;;;;;22.70;51.40;;;;;;5110169;28;19924;-47
2022/05/07 10:32:05;;;;;;;;;;;22.80;51.40;;;;;;5110279;28;19924;-47
2022/05/07 10:34:32;;;;;;;;;;;22.80;51.40;;;;;;5110336;28;20342;-47
2022/05/07 10:37:07;;;;;;;;;;;22.80;51.20;;;;;;5110903;28;19924;-52
2022/05/07 10:39:36;;;;;;;;;;;22.80;51.20;;;;;;5110653;28;19955;-46
2022/05/07 10:42:16;;;;;;;;;;;22.90;51.20;;;;;;5104693;28;19924;-47
2022/05/07 10:44:43;;;;;;;;;;;22.90;51.10;;;;;;5089607;28;19931;-47
2022/05/07 10:47:12;;;;;;;;;;;22.90;51.00;;;;;;5089773;28;19924;-46
2022/05/07 10:50:12;;;;;;;;;;;23.00;51.00;;;;;;5090132;28;19951;-47
2022/05/07 10:52:39;;;;;;;;;;;22.90;51.00;;;;;;5047507;28;20015;-47
2022/05/07 10:55:10;;;;;;;;;;;22.90;51.00;;;;;;5041809;28;19932;-54
2022/05/07 10:57:47;;;;;;;;;;;22.90;51.00;;;;;;5047106;28;19925;-47
2022/05/07 11:00:18;;;;;;;;;;;22.90;51.00;;;;;;5047452;28;20293;-47
2022/05/07 11:02:47;;;;;;;;;;;22.90;51.10;;;;;;5046555;28;19925;-47
2022/05/07 11:05:15;;;;;;;;;;;22.90;51.20;;;;;;5047062;28;19925;-47
2022/05/07 11:07:43;;;;;;;;;;;22.90;51.20;;;;;;5046647;28;20463;-46
2022/05/07 11:10:11;;;;;;;;;;;22.90;51.20;;;;;;5046492;28;19928;-48
2022/05/07 11:12:42;;;;;;;;;;;22.90;51.30;;;;;;5046860;28;19929;-47
2022/05/07 11:15:09;;;;;;;;;;;22.90;51.30;;;;;;5046986;28;19935;-48
2022/05/07 11:17:40;;;;;;;;;;;22.80;51.30;;;;;;5046849;28;19929;-46
2022/05/07 11:20:10;;;;;;;;;;;22.80;51.40;;;;;;5045204;28;19932;-52
2022/05/07 11:22:39;;;;;;;;;;;22.80;52.10;;;;;;5046354;28;20344;-47
2022/05/07 11:25:08;;;;;;;;;;;22.70;51.40;;;;;;5046417;28;19971;-46
2022/05/07 11:27:35;;;;;;;;;;;22.70;51.50;;;;;;5051739;28;19925;-46
2022/05/07 11:30:05;;;;;;;;;;;22.70;51.60;;;;;;5068730;28;20284;-47
2022/05/07 11:32:39;;;;;;;;;;;22.70;51.70;;;;;;5068594;28;20384;-47
2022/05/07 11:35:06;;;;;;;;;;;22.70;51.70;;;;;;5059798;28;19952;-48
2022/05/07 11:37:51;;;;;;;;;;;22.70;51.80;;;;;;5056016;28;19924;-47
2022/05/07 11:40:29;;;;;;;;;;;22.60;51.70;;;;;;5055518;28;20376;-48
2022/05/07 11:45:41;;;;;;;;;;;22.60;51.90;;;;;;5074862;28;20342;-48
2022/05/07 11:48:17;;;;;;;;;;;22.60;51.90;;;;;;5074653;28;19929;-47
2022/05/07 11:50:55;;;;;;;;;;;22.60;51.90;;;;;;5075312;28;19925;-50
2022/05/07 11:53:26;;;;;;;;;;;22.60;51.90;;;;;;5074848;28;19924;-46
2022/05/07 11:56:04;;;;;;;;;;;22.60;51.90;;;;;;5087583;28;19924;-49
2022/05/07 11:58:39;;;;;;;;;;;22.60;51.90;;;;;;5095047;28;19933;-47
2022/05/07 12:01:16;;;;;;;;;;;22.70;51.90;;;;;;5094756;28;19924;-47
2022/05/07 12:03:44;;;;;;;;;;;22.60;51.80;;;;;;5095033;28;19925;-48
2022/05/07 12:06:14;;;;;;;;;;;22.70;51.80;;;;;;5095060;28;19925;-48
2022/05/07 12:08:41;;;;;;;;;;;22.60;51.70;;;;;;5090703;28;20410;-48
2022/05/07 12:11:08;;;;;;;;;;;22.60;51.70;;;;;;5074670;28;20375;-48
2022/05/07 12:13:35;;;;;;;;;;;22.70;51.70;;;;;;5074528;28;19938;-48
2022/05/07 12:18:49;;;;;;;;;;;22.80;51.70;;;;;;5055049;28;19978;-49
2022/05/07 12:21:16;;;;;;;;;;;22.80;52.20;;;;;;5054134;28;19924;-48
2022/05/07 12:32:01;;;;;;;;;;;22.80;51.30;;;;;;5054100;28;19929;-50
2022/05/07 12:34:30;;;;;;;;;;;22.80;51.30;;;;;;5059447;28;19935;-50
2022/05/07 12:36:57;;;;;;;;;;;22.90;51.30;;;;;;5073981;28;19955;-48
2022/05/07 12:39:24;;;;;;;;;;;22.90;51.30;;;;;;5073979;28;19928;-53
2022/05/07 12:41:51;;;;;;;;;;;22.90;51.20;;;;;;5074039;28;19924;-49
2022/05/07 12:44:18;;;;;;;;;;;22.90;51.20;;;;;;5074292;28;19930;-54
2022/05/07 12:46:45;;;;;;;;;;;22.90;51.10;;;;;;5072889;28;19924;-54
2022/05/07 12:49:12;;;;;;;;;;;22.90;51.10;;;;;;5074037;28;19970;-55
2022/05/07 12:51:40;;;;;;;;;;;22.90;51.10;;;;;;5074142;28;19940;-53
2022/05/07 12:54:07;;;;;;;;;;;22.90;51.20;;;;;;5073893;28;19931;-54
2022/05/07 12:56:34;;;;;;;;;;;22.90;51.20;;;;;;5090994;28;20379;-54
2022/05/07 12:59:01;;;;;;;;;;;22.90;51.20;;;;;;5094198;28;20394;-50
2022/05/07 13:01:28;;;;;;;;;;;22.90;51.20;;;;;;5093899;28;19931;-54
2022/05/07 13:03:55;;;;;;;;;;;22.90;51.80;;;;;;5093941;28;19973;-53
2022/05/07 13:06:22;;;;;;;;;;;22.90;51.20;;;;;;5071509;28;19932;-52
2022/05/07 13:08:51;;;;;;;;;;;22.90;51.30;;;;;;5053223;28;19929;-52
2022/05/07 13:11:18;;;;;;;;;;;22.80;51.30;;;;;;5053697;28;20426;-54
2022/05/07 13:13:45;;;;;;;;;;;22.80;51.40;;;;;;5067126;28;20269;-49
2022/05/07 13:16:12;;;;;;;;;;;22.80;51.40;;;;;;5073512;28;19929;-54
2022/05/07 13:18:39;;;;;;;;;;;22.80;51.50;;;;;;5073518;28;20261;-53
2022/05/07 13:21:06;;;;;;;;;;;22.80;51.50;;;;;;5072965;28;19924;-51
2022/05/07 13:23:33;;;;;;;;;;;22.80;51.60;;;;;;5072434;28;20281;-55
2022/05/07 13:26:00;;;;;;;;;;;22.70;51.60;;;;;;5073448;28;19935;-54
2022/05/07 13:28:27;;;;;;;;;;;22.70;51.60;;;;;;5073292;28;19925;-52
2022/05/07 13:30:56;;;;;;;;;;;22.70;51.70;;;;;;5072899;28;20399;-48
2022/05/07 13:33:24;;;;;;;;;;;22.60;51.60;;;;;;5073201;28;19932;-49
2022/05/07 13:35:51;;;;;;;;;;;22.70;51.70;;;;;;5073435;28;20027;-49
2022/05/07 13:38:18;;;;;;;;;;;22.60;51.70;;;;;;5073414;28;20331;-54
2022/05/07 13:40:45;;;;;;;;;;;22.60;51.70;;;;;;5073266;28;19931;-50
2022/05/07 13:43:13;;;;;;;;;;;22.60;51.70;;;;;;5072972;28;19924;-49
2022/05/07 13:45:40;;;;;;;;;;;22.60;51.80;;;;;;5072942;28;19933;-51
2022/05/07 13:48:10;;;;;;;;;;;22.60;51.90;;;;;;5072972;28;19931;-48
2022/05/07 13:50:37;;;;;;;;;;;22.50;51.90;;;;;;5072809;28;19924;-47
2022/05/07 13:53:04;;;;;;;;;;;22.50;51.90;;;;;;5072639;28;20392;-47
2022/05/07 13:55:31;;;;;;;;;;;22.50;51.90;;;;;;5082159;28;20287;-53
2022/05/07 13:57:58;;;;;;;;;;;22.60;51.90;;;;;;5092811;28;20015;-50
2022/05/07 14:00:25;;;;;;;;;;;22.60;51.90;;;;;;5092679;28;19932;-48
2022/05/07 14:02:52;;;;;;;;;;;22.60;51.90;;;;;;5078937;28;19928;-48
2022/05/07 14:05:19;;;;;;;;;;;22.60;51.90;;;;;;5070893;28;19932;-47
2022/05/07 14:07:46;;;;;;;;;;;22.60;51.90;;;;;;5052754;28;20342;-48
2022/05/07 14:10:13;;;;;;;;;;;22.50;51.80;;;;;;5071714;28;19925;-46
2022/05/07 14:12:40;;;;;;;;;;;22.50;51.80;;;;;;5072426;28;20388;-48
2022/05/07 14:15:08;;;;;;;;;;;22.60;51.90;;;;;;5072709;28;19925;-46
2022/05/07 14:17:35;;;;;;;;;;;22.50;51.80;;;;;;5072044;28;19928;-47
2022/05/07 14:20:03;;;;;;;;;;;22.50;51.80;;;;;;5071708;28;19924;-48
2022/05/07 14:22:31;;;;;;;;;;;22.60;51.90;;;;;;5072344;28;19928;-49
2022/05/07 14:25:00;;;;;;;;;;;22.50;51.80;;;;;;5072517;28;19924;-47
2022/05/07 14:27:31;;;;;;;;;;;22.60;51.90;;;;;;5072074;28;20406;-46
2022/05/07 14:29:58;;;;;;;;;;;22.60;51.90;;;;;;5072306;28;19972;-49
2022/05/07 14:32:26;;;;;;;;;;;22.60;51.90;;;;;;5060507;28;20346;-49
2022/05/07 14:34:53;;;;;;;;;;;22.60;51.90;;;;;;5052568;28;19982;-53
2022/05/07 14:37:20;;;;;;;;;;;22.60;51.90;;;;;;5052095;28;19935;-49
2022/05/07 14:39:47;;;;;;;;;;;22.60;51.90;;;;;;5052340;28;19924;-48
2022/05/07 14:42:14;;;;;;;;;;;22.50;51.80;;;;;;5065713;28;19974;-47
2022/05/07 14:44:41;;;;;;;;;;;22.50;51.90;;;;;;5072230;28;19932;-48
2022/05/07 14:47:08;;;;;;;;;;;22.50;51.80;;;;;;5088730;28;19931;-46
2022/05/07 14:49:35;;;;;;;;;;;22.50;51.90;;;;;;5092725;28;19955;-47
2022/05/07 14:52:04;;;;;;;;;;;22.50;51.90;;;;;;5091896;28;20298;-50
2022/05/07 14:54:42;;;;;;;;;;;22.50;51.90;;;;;;5092450;28;19930;-48
2022/05/07 14:57:10;;;;;;;;;;;22.50;51.90;;;;;;5091922;28;19924;-48
2022/05/07 14:59:37;;;;;;;;;;;22.50;51.90;;;;;;5072882;28;19971;-47
2022/05/07 15:02:04;;;;;;;;;;;22.50;51.90;;;;;;5072392;28;19931;-47